Time,TemperatureF,DewpointF,PressureIn,WindDirection,WindDirectionDegrees,WindSpeedMPH,WindSpeedGustMPH,Humidity,HourlyPrecipIn,Conditions,Clouds,dailyrainin,SolarRadiationWatts/m^2,SoftwareType,DateUTC
2013-02-08 00:01:00,59.0,46.0,-100.00,WSW,247,0.0,4.0,61,0.00,,,0.00,21.000000,,2013-02-08 00:01:00,
2013-02-08 00:11:00,59.0,46.0,-100.00,WSW,247,0.0,4.0,61,0.00,,,0.00,21.000000,,2013-02-08 00:11:00,
2013-02-08 00:21:00,59.0,46.0,-100.00,WSW,247,0.0,4.0,61,0.00,,,0.00,21.000000,,2013-02-08 00:21:00,
2013-02-08 00:32:00,59.0,46.0,-100.00,WSW,247,0.0,4.0,61,0.00,,,0.00,21.000000,,2013-02-08 00:32:00,
2013-02-08 01:52:00,58.0,47.0,-100.00,West,265,1.0,3.0,66,0.00,,,0.00,0.000000,,2013-02-08 01:52:00,
2013-02-08 02:01:00,58.0,47.0,-100.00,West,265,1.0,3.0,66,0.00,,,0.00,0.000000,,2013-02-08 02:01:00,
2013-02-08 02:11:00,58.0,47.0,-100.00,West,265,1.0,3.0,66,0.00,,,0.00,0.000000,,2013-02-08 02:11:00,
2013-02-08 02:21:00,58.0,47.0,-100.00,West,265,1.0,3.0,66,0.00,,,0.00,0.000000,,2013-02-08 02:21:00,
2013-02-08 02:32:00,58.0,47.0,-100.00,West,265,1.0,3.0,66,0.00,,,0.00,0.000000,,2013-02-08 02:32:00,
2013-02-08 02:52:00,57.0,47.0,-100.00,SW,226,2.0,2.0,70,0.00,,,0.00,0.000000,,2013-02-08 02:52:00,
2013-02-08 03:02:00,57.0,47.0,-100.00,SW,226,2.0,2.0,70,0.00,,,0.00,0.000000,,2013-02-08 03:02:00,
2013-02-08 03:12:00,57.0,47.0,-100.00,SW,226,2.0,2.0,70,0.00,,,0.00,0.000000,,2013-02-08 03:12:00,
2013-02-08 03:22:00,57.0,47.0,-100.00,SW,226,2.0,2.0,70,0.00,,,0.00,0.000000,,2013-02-08 03:22:00,
2013-02-08 03:32:00,57.0,47.0,-100.00,SW,226,2.0,2.0,70,0.00,,,0.00,0.000000,,2013-02-08 03:32:00,
2013-02-08 04:02:00,56.0,48.0,-100.00,SSE,151,2.0,8.0,75,0.00,,,0.00,0.000000,,2013-02-08 04:02:00,
2013-02-08 04:11:00,56.0,48.0,-100.00,SSE,151,2.0,8.0,75,0.00,,,0.00,0.000000,,2013-02-08 04:11:00,
2013-02-08 04:21:00,56.0,48.0,-100.00,SSE,151,2.0,8.0,75,0.00,,,0.00,0.000000,,2013-02-08 04:21:00,
2013-02-08 04:32:00,56.0,48.0,-100.00,SSE,151,2.0,8.0,75,0.00,,,0.00,0.000000,,2013-02-08 04:32:00,
2013-02-08 05:02:00,54.0,51.0,-100.00,SW,221,3.0,10.0,90,0.10,,,0.10,0.000000,,2013-02-08 05:02:00,
2013-02-08 05:11:00,54.0,51.0,-100.00,SW,221,3.0,10.0,90,0.10,,,0.10,0.000000,,2013-02-08 05:11:00,
2013-02-08 05:22:00,54.0,51.0,-100.00,SW,221,3.0,10.0,90,0.10,,,0.10,0.000000,,2013-02-08 05:22:00,
2013-02-08 05:32:00,54.0,51.0,-100.00,SW,221,3.0,10.0,90,0.10,,,0.10,0.000000,,2013-02-08 05:32:00,
2013-02-08 06:01:00,52.0,51.0,-100.00,West,272,2.0,6.0,97,0.43,,,0.53,0.000000,,2013-02-08 06:01:00,
2013-02-08 06:11:00,52.0,51.0,-100.00,West,272,2.0,6.0,97,0.43,,,0.53,0.000000,,2013-02-08 06:11:00,
2013-02-08 06:21:00,52.0,51.0,-100.00,West,272,2.0,6.0,97,0.43,,,0.53,0.000000,,2013-02-08 06:21:00,
2013-02-08 06:31:00,52.0,51.0,-100.00,West,272,2.0,6.0,97,0.43,,,0.53,0.000000,,2013-02-08 06:31:00,
2013-02-08 07:01:00,51.0,50.0,-100.00,NW,315,4.0,11.0,96,0.27,,,0.80,0.000000,,2013-02-08 07:01:00,
2013-02-08 07:11:00,51.0,50.0,-100.00,NW,315,4.0,11.0,96,0.27,,,0.80,0.000000,,2013-02-08 07:11:00,
2013-02-08 07:21:00,51.0,50.0,-100.00,NW,315,4.0,11.0,96,0.27,,,0.80,0.000000,,2013-02-08 07:21:00,
2013-02-08 07:32:00,51.0,50.0,-100.00,NW,315,4.0,11.0,96,0.27,,,0.80,0.000000,,2013-02-08 07:32:00,
2013-02-08 08:01:00,48.0,46.0,-100.00,NNW,345,4.0,12.0,93,0.09,,,0.89,0.000000,,2013-02-08 08:01:00,
2013-02-08 08:11:00,48.0,46.0,-100.00,NNW,345,4.0,12.0,93,0.09,,,0.89,0.000000,,2013-02-08 08:11:00,
2013-02-08 08:21:00,48.0,46.0,-100.00,NNW,345,4.0,12.0,93,0.09,,,0.89,0.000000,,2013-02-08 08:21:00,
2013-02-08 08:32:00,48.0,46.0,-100.00,NNW,345,4.0,12.0,93,0.09,,,0.89,0.000000,,2013-02-08 08:32:00,
2013-02-08 08:52:00,46.0,45.0,-100.00,North,351,3.0,13.0,95,0.01,,,0.90,0.000000,,2013-02-08 08:52:00,
2013-02-08 09:03:00,46.0,45.0,-100.00,North,351,3.0,13.0,95,0.01,,,0.90,0.000000,,2013-02-08 09:03:00,
2013-02-08 09:11:00,46.0,45.0,-100.00,North,351,3.0,13.0,95,0.01,,,0.90,0.000000,,2013-02-08 09:11:00,
2013-02-08 09:21:00,46.0,45.0,-100.00,North,351,3.0,13.0,95,0.01,,,0.90,0.000000,,2013-02-08 09:21:00,
2013-02-08 09:32:00,46.0,45.0,-100.00,North,351,3.0,13.0,95,0.01,,,0.90,0.000000,,2013-02-08 09:32:00,
2013-02-08 10:01:00,44.0,42.0,-100.00,North,10,4.0,12.0,93,0.00,,,0.90,0.000000,,2013-02-08 10:01:00,
2013-02-08 10:11:00,44.0,42.0,-100.00,North,10,4.0,12.0,93,0.00,,,0.90,0.000000,,2013-02-08 10:11:00,
2013-02-08 10:22:00,44.0,42.0,-100.00,North,10,4.0,12.0,93,0.00,,,0.90,0.000000,,2013-02-08 10:22:00,
2013-02-08 10:31:00,44.0,42.0,-100.00,North,10,4.0,12.0,93,0.00,,,0.90,0.000000,,2013-02-08 10:31:00,
2013-02-08 11:01:00,42.0,39.0,-100.00,North,7,4.0,12.0,89,0.00,,,0.90,0.000000,,2013-02-08 11:01:00,
2013-02-08 11:11:00,42.0,39.0,-100.00,North,7,4.0,12.0,89,0.00,,,0.90,0.000000,,2013-02-08 11:11:00,
2013-02-08 11:21:00,42.0,39.0,-100.00,North,7,4.0,12.0,89,0.00,,,0.90,0.000000,,2013-02-08 11:21:00,
2013-02-08 11:32:00,42.0,39.0,-100.00,North,7,4.0,12.0,89,0.00,,,0.90,0.000000,,2013-02-08 11:32:00,
2013-02-08 11:52:00,41.0,37.0,-100.00,North,8,5.0,18.0,85,0.00,,,0.90,0.000000,,2013-02-08 11:52:00,
2013-02-08 12:02:00,41.0,37.0,-100.00,North,8,5.0,18.0,85,0.00,,,0.90,0.000000,,2013-02-08 12:02:00,
2013-02-08 12:11:00,41.0,37.0,-100.00,North,8,5.0,18.0,85,0.00,,,0.90,0.000000,,2013-02-08 12:11:00,
2013-02-08 12:22:00,41.0,37.0,-100.00,North,8,5.0,18.0,85,0.00,,,0.90,0.000000,,2013-02-08 12:22:00,
2013-02-08 12:33:00,41.0,37.0,-100.00,North,8,5.0,18.0,85,0.00,,,0.90,0.000000,,2013-02-08 12:33:00,
2013-02-08 12:52:00,41.0,38.0,-100.00,NNE,12,3.0,9.0,89,0.00,,,0.90,0.000000,,2013-02-08 12:52:00,
2013-02-08 13:02:00,41.0,38.0,-100.00,NNE,12,3.0,9.0,89,0.00,,,0.90,0.000000,,2013-02-08 13:02:00,
2013-02-08 13:11:00,41.0,38.0,-100.00,NNE,12,3.0,9.0,89,0.00,,,0.90,0.000000,,2013-02-08 13:11:00,
2013-02-08 13:22:00,41.0,38.0,-100.00,NNE,12,3.0,9.0,89,0.00,,,0.90,0.000000,,2013-02-08 13:22:00,
2013-02-08 13:32:00,41.0,38.0,-100.00,NNE,12,3.0,9.0,89,0.00,,,0.90,0.000000,,2013-02-08 13:32:00,
2013-02-08 14:02:00,40.0,36.0,-100.00,NNE,12,3.0,8.0,86,0.00,,,0.90,3.000000,,2013-02-08 14:02:00,
2013-02-08 14:11:00,40.0,36.0,-100.00,NNE,12,3.0,8.0,86,0.00,,,0.90,3.000000,,2013-02-08 14:11:00,
2013-02-08 14:22:00,40.0,36.0,-100.00,NNE,12,3.0,8.0,86,0.00,,,0.90,3.000000,,2013-02-08 14:22:00,
2013-02-08 14:32:00,40.0,36.0,-100.00,NNE,12,3.0,8.0,86,0.00,,,0.90,3.000000,,2013-02-08 14:32:00,
2013-02-08 14:52:00,39.0,35.0,-100.00,NNE,15,4.0,13.0,85,0.00,,,0.90,16.000000,,2013-02-08 14:52:00,
2013-02-08 15:02:00,39.0,35.0,-100.00,NNE,15,4.0,13.0,85,0.00,,,0.90,16.000000,,2013-02-08 15:02:00,
2013-02-08 15:11:00,39.0,35.0,-100.00,NNE,15,4.0,13.0,85,0.00,,,0.90,16.000000,,2013-02-08 15:11:00,
2013-02-08 15:22:00,39.0,35.0,-100.00,NNE,15,4.0,13.0,85,0.00,,,0.90,16.000000,,2013-02-08 15:22:00,
2013-02-08 15:32:00,39.0,35.0,-100.00,NNE,15,4.0,13.0,85,0.00,,,0.90,16.000000,,2013-02-08 15:32:00,
2013-02-08 16:01:00,39.0,33.0,-100.00,NNE,19,6.0,16.0,79,0.00,,,0.90,53.000000,,2013-02-08 16:01:00,
2013-02-08 16:11:00,39.0,33.0,-100.00,NNE,19,6.0,16.0,79,0.00,,,0.90,53.000000,,2013-02-08 16:11:00,
2013-02-08 16:22:00,39.0,33.0,-100.00,NNE,19,6.0,16.0,79,0.00,,,0.90,53.000000,,2013-02-08 16:22:00,
2013-02-08 16:32:00,39.0,33.0,-100.00,NNE,19,6.0,16.0,79,0.00,,,0.90,53.000000,,2013-02-08 16:32:00,
2013-02-08 16:52:00,39.0,33.0,-100.00,NNW,335,4.0,12.0,80,0.00,,,0.90,68.000000,,2013-02-08 16:52:00,
2013-02-08 17:03:00,39.0,33.0,-100.00,NNW,335,4.0,12.0,80,0.00,,,0.90,68.000000,,2013-02-08 17:03:00,
2013-02-08 17:12:00,39.0,33.0,-100.00,NNW,335,4.0,12.0,80,0.00,,,0.90,68.000000,,2013-02-08 17:12:00,
2013-02-08 17:23:00,39.0,33.0,-100.00,NNW,335,4.0,12.0,80,0.00,,,0.90,68.000000,,2013-02-08 17:23:00,
2013-02-08 17:32:00,39.0,33.0,-100.00,NNW,335,4.0,12.0,80,0.00,,,0.90,68.000000,,2013-02-08 17:32:00,
2013-02-08 18:02:00,38.0,34.0,-100.00,NW,321,3.0,8.0,85,0.00,,,0.90,72.000000,,2013-02-08 18:02:00,
2013-02-08 18:12:00,38.0,34.0,-100.00,NW,321,3.0,8.0,85,0.00,,,0.90,72.000000,,2013-02-08 18:12:00,
2013-02-08 18:24:00,38.0,34.0,-100.00,NW,321,3.0,8.0,85,0.00,,,0.90,72.000000,,2013-02-08 18:24:00,
2013-02-08 18:34:00,38.0,34.0,-100.00,NW,321,3.0,8.0,85,0.00,,,0.90,72.000000,,2013-02-08 18:34:00,
2013-02-08 19:02:00,40.0,33.0,-100.00,NW,317,3.0,8.0,77,0.00,,,0.90,113.000000,,2013-02-08 19:02:00,
2013-02-08 19:11:00,40.0,33.0,-100.00,NW,317,3.0,8.0,77,0.00,,,0.90,113.000000,,2013-02-08 19:11:00,
2013-02-08 19:22:00,40.0,33.0,-100.00,NW,317,3.0,8.0,77,0.00,,,0.90,113.000000,,2013-02-08 19:22:00,
2013-02-08 19:32:00,40.0,33.0,-100.00,NW,317,3.0,8.0,77,0.00,,,0.90,113.000000,,2013-02-08 19:32:00,
2013-02-08 20:02:00,42.0,32.0,-100.00,NNE,17,5.0,14.0,67,0.00,,,0.90,373.000000,,2013-02-08 20:02:00,
2013-02-08 20:11:00,42.0,32.0,-100.00,NNE,17,5.0,14.0,67,0.00,,,0.90,373.000000,,2013-02-08 20:11:00,
2013-02-08 20:22:00,42.0,32.0,-100.00,NNE,17,5.0,14.0,67,0.00,,,0.90,373.000000,,2013-02-08 20:22:00,
2013-02-08 20:32:00,42.0,32.0,-100.00,NNE,17,5.0,14.0,67,0.00,,,0.90,373.000000,,2013-02-08 20:32:00,
2013-02-08 21:02:00,42.0,31.0,-100.00,NNE,33,5.0,15.0,65,0.00,,,0.90,443.000000,,2013-02-08 21:02:00,
2013-02-08 21:11:00,42.0,31.0,-100.00,NNE,33,5.0,15.0,65,0.00,,,0.90,443.000000,,2013-02-08 21:11:00,
2013-02-08 21:22:00,42.0,31.0,-100.00,NNE,33,5.0,15.0,65,0.00,,,0.90,443.000000,,2013-02-08 21:22:00,
2013-02-08 21:32:00,42.0,31.0,-100.00,NNE,33,5.0,15.0,65,0.00,,,0.90,443.000000,,2013-02-08 21:32:00,
2013-02-08 21:52:00,41.0,30.0,-100.00,NNE,17,4.0,13.0,65,0.00,,,0.90,250.000000,,2013-02-08 21:52:00,
2013-02-08 22:02:00,41.0,30.0,-100.00,NNE,17,4.0,13.0,65,0.00,,,0.90,250.000000,,2013-02-08 22:02:00,
2013-02-08 22:11:00,41.0,30.0,-100.00,NNE,17,4.0,13.0,65,0.00,,,0.90,250.000000,,2013-02-08 22:11:00,
2013-02-08 22:22:00,41.0,30.0,-100.00,NNE,17,4.0,13.0,65,0.00,,,0.90,250.000000,,2013-02-08 22:22:00,
2013-02-08 22:32:00,41.0,30.0,-100.00,NNE,17,4.0,13.0,65,0.00,,,0.90,250.000000,,2013-02-08 22:32:00,
2013-02-08 22:52:00,39.0,29.0,-100.00,NNE,29,5.0,12.0,68,0.00,,,0.90,135.000000,,2013-02-08 22:52:00,
2013-02-08 23:01:00,39.0,29.0,-100.00,NNE,29,5.0,12.0,68,0.00,,,0.90,135.000000,,2013-02-08 23:01:00,
2013-02-08 23:11:00,39.0,29.0,-100.00,NNE,29,5.0,12.0,68,0.00,,,0.90,135.000000,,2013-02-08 23:11:00,
2013-02-08 23:21:00,39.0,29.0,-100.00,NNE,29,5.0,12.0,68,0.00,,,0.90,135.000000,,2013-02-08 23:21:00,
2013-02-08 23:32:00,39.0,29.0,-100.00,NNE,29,5.0,12.0,68,0.00,,,0.90,135.000000,,2013-02-08 23:32:00,